Time;durP1;ratioP1;P1;durP2;ratioP2;P2;SDS_P1;SDS_P2;PMS_P1;PMS_P2;Temp;Humidity;BMP_temperature;BMP_pressure;BME280_temperature;BME280_humidity;BME280_pressure;Samples;Min_cycle;Max_cycle;Signal;HPM_P1;HPM_P2
2022/12/03 00:00:49;;;;;;;40.55;21.48;;;;;;;;;;5095842;28;20101;-84
2022/12/03 00:03:16;;;;;;;38.08;21.90;;;;;;;;;;5096050;28;20043;-83
2022/12/03 00:05:44;;;;;;;48.88;25.92;;;;;;;;;;5095643;28;20048;-83
2022/12/03 00:08:15;;;;;;;45.13;22.88;;;;;;;;;;5096430;28;20404;-84
2022/12/03 00:10:43;;;;;;;47.25;23.85;;;;;;;;;;5113543;28;20058;-83
2022/12/03 00:13:10;;;;;;;47.95;26.55;;;;;;;;;;5095274;28;20059;-83
2022/12/03 00:15:37;;;;;;;42.20;23.58;;;;;;;;;;5113296;28;20472;-84
2022/12/03 00:18:04;;;;;;;48.58;23.70;;;;;;;;;;5113457;28;20051;-84
2022/12/03 00:20:31;;;;;;;46.67;25.77;;;;;;;;;;5113210;28;20514;-84
2022/12/03 00:22:58;;;;;;;44.33;24.55;;;;;;;;;;5095240;28;20051;-83
2022/12/03 00:25:26;;;;;;;46.78;24.98;;;;;;;;;;5095396;28;20061;-84
2022/12/03 00:27:53;;;;;;;50.92;24.33;;;;;;;;;;5095464;28;20047;-84
2022/12/03 00:30:20;;;;;;;46.85;24.58;;;;;;;;;;5095361;28;20055;-84
2022/12/03 00:32:47;;;;;;;47.00;25.00;;;;;;;;;;5113457;28;20044;-84
2022/12/03 00:35:15;;;;;;;46.92;24.90;;;;;;;;;;5095926;28;20054;-83
2022/12/03 00:37:42;;;;;;;47.60;24.70;;;;;;;;;;5095029;28;20514;-83
2022/12/03 00:40:10;;;;;;;46.28;24.92;;;;;;;;;;5094925;28;20051;-83
2022/12/03 00:42:37;;;;;;;48.10;25.10;;;;;;;;;;5095187;28;20043;-83
2022/12/03 00:45:05;;;;;;;41.00;22.63;;;;;;;;;;5095331;28;20074;-83
2022/12/03 00:47:32;;;;;;;42.67;22.92;;;;;;;;;;5095075;28;20051;-83
2022/12/03 00:49:59;;;;;;;45.25;23.20;;;;;;;;;;5113224;28;20052;-83
2022/12/03 00:52:26;;;;;;;51.10;25.75;;;;;;;;;;5095028;28;20056;-84
2022/12/03 00:54:53;;;;;;;46.70;24.42;;;;;;;;;;5113411;28;20044;-83
2022/12/03 00:57:21;;;;;;;46.45;24.23;;;;;;;;;;5095338;28;20158;-84
2022/12/03 00:59:48;;;;;;;48.03;24.75;;;;;;;;;;5098569;28;20411;-83
2022/12/03 01:02:15;;;;;;;45.33;24.50;;;;;;;;;;5098823;28;20403;-83
2022/12/03 01:04:43;;;;;;;48.00;24.38;;;;;;;;;;5116883;28;20051;-83
2022/12/03 01:07:10;;;;;;;52.22;25.50;;;;;;;;;;5099247;28;20051;-84
2022/12/03 01:09:37;;;;;;;52.50;28.95;;;;;;;;;;5099278;28;20055;-84
2022/12/03 01:12:04;;;;;;;49.50;26.40;;;;;;;;;;5098991;28;20441;-83
2022/12/03 01:14:32;;;;;;;51.40;27.02;;;;;;;;;;5117205;28;20492;-83
2022/12/03 01:16:59;;;;;;;46.92;25.15;;;;;;;;;;5098851;28;20051;-84
2022/12/03 01:19:26;;;;;;;46.58;24.92;;;;;;;;;;5116717;28;20411;-83
2022/12/03 01:21:54;;;;;;;49.53;25.42;;;;;;;;;;5117033;28;20055;-84
2022/12/03 01:24:21;;;;;;;57.78;31.08;;;;;;;;;;5098854;28;20449;-84
2022/12/03 01:26:48;;;;;;;47.08;24.40;;;;;;;;;;5116715;28;20051;-83
2022/12/03 01:29:16;;;;;;;50.55;25.98;;;;;;;;;;5098711;28;20431;-83
2022/12/03 01:34:29;;;;;;;51.00;25.02;;;;;;;;;;5116883;28;20054;-84
2022/12/03 01:36:56;;;;;;;56.03;28.63;;;;;;;;;;5116806;28;20480;-84
2022/12/03 01:39:23;;;;;;;53.58;26.95;;;;;;;;;;5116883;28;20054;-83
2022/12/03 01:41:52;;;;;;;55.85;27.25;;;;;;;;;;5098403;28;20051;-83
2022/12/03 01:44:24;;;;;;;49.75;26.27;;;;;;;;;;5098338;28;20070;-83
2022/12/03 01:46:52;;;;;;;52.60;27.13;;;;;;;;;;5100362;28;20066;-83
2022/12/03 01:49:21;;;;;;;52.78;26.35;;;;;;;;;;5111798;28;20458;-83
2022/12/03 01:51:49;;;;;;;53.13;25.80;;;;;;;;;;5116630;28;20075;-84
2022/12/03 01:54:21;;;;;;;53.50;26.55;;;;;;;;;;5098489;28;20125;-84
2022/12/03 01:56:49;;;;;;;52.30;26.83;;;;;;;;;;5098436;28;20420;-84
2022/12/03 01:59:20;;;;;;;51.05;25.92;;;;;;;;;;5116123;28;20051;-84
2022/12/03 02:01:47;;;;;;;56.85;28.92;;;;;;;;;;5098049;28;20062;-84
2022/12/03 02:04:15;;;;;;;53.30;27.13;;;;;;;;;;5116117;28;20043;-83
2022/12/03 02:06:43;;;;;;;52.22;27.35;;;;;;;;;;5098127;28;20047;-84
2022/12/03 02:09:11;;;;;;;56.38;28.13;;;;;;;;;;5097285;28;20050;-83
2022/12/03 02:11:44;;;;;;;60.95;28.13;;;;;;;;;;5098175;28;20407;-83
2022/12/03 02:14:17;;;;;;;61.28;28.83;;;;;;;;;;5116190;28;20058;-84
2022/12/03 02:16:45;;;;;;;60.88;29.13;;;;;;;;;;5097985;28;20468;-84
2022/12/03 02:19:17;;;;;;;56.97;28.30;;;;;;;;;;5115942;28;20051;-83
2022/12/03 02:21:56;;;;;;;55.92;27.90;;;;;;;;;;5097785;28;20134;-84
2022/12/03 02:24:28;;;;;;;54.13;28.45;;;;;;;;;;5115910;28;20057;-83
2022/12/03 02:26:56;;;;;;;58.22;30.55;;;;;;;;;;5097398;28;20055;-84
2022/12/03 02:29:23;;;;;;;52.08;26.38;;;;;;;;;;5097422;28;20492;-84
2022/12/03 02:31:50;;;;;;;51.22;27.42;;;;;;;;;;5097390;28;20047;-84
2022/12/03 02:34:36;;;;;;;54.30;27.38;;;;;;;;;;5097343;28;20048;-84
2022/12/03 02:37:05;;;;;;;50.20;25.60;;;;;;;;;;5115573;28;20048;-84
2022/12/03 02:39:33;;;;;;;52.25;26.63;;;;;;;;;;5115463;28;20055;-84
2022/12/03 02:44:47;;;;;;;56.63;26.42;;;;;;;;;;5115251;28;20044;-84
2022/12/03 02:47:14;;;;;;;52.50;26.02;;;;;;;;;;5096989;28;20055;-83
2022/12/03 02:49:42;;;;;;;56.13;27.60;;;;;;;;;;5097207;28;20070;-84
2022/12/03 02:52:09;;;;;;;51.42;26.17;;;;;;;;;;5115450;28;20479;-84
2022/12/03 02:54:36;;;;;;;48.72;26.30;;;;;;;;;;5119045;27;20109;-84
2022/12/03 02:57:03;;;;;;;54.80;26.17;;;;;;;;;;5117755;27;20047;-84
2022/12/03 02:59:31;;;;;;;50.67;25.98;;;;;;;;;;5136011;27;20435;-84
2022/12/03 03:01:58;;;;;;;54.63;28.63;;;;;;;;;;5152258;27;20039;-84
2022/12/03 03:04:26;;;;;;;47.90;25.60;;;;;;;;;;5117530;27;20384;-83
2022/12/03 03:06:53;;;;;;;59.22;28.55;;;;;;;;;;5135669;27;20047;-84
2022/12/03 03:09:21;;;;;;;55.95;28.15;;;;;;;;;;5117397;27;20411;-84
2022/12/03 03:11:48;;;;;;;56.85;28.77;;;;;;;;;;5117332;27;20054;-84
2022/12/03 03:14:15;;;;;;;53.95;27.50;;;;;;;;;;5117247;27;20043;-83
2022/12/03 03:16:42;;;;;;;52.55;26.90;;;;;;;;;;5117099;27;20065;-83
2022/12/03 03:19:10;;;;;;;52.33;26.48;;;;;;;;;;5135573;27;20043;-84
2022/12/03 03:21:37;;;;;;;54.63;26.77;;;;;;;;;;5116195;27;20043;-83
2022/12/03 03:24:04;;;;;;;54.95;27.80;;;;;;;;;;5117066;27;20055;-83
2022/12/03 03:26:31;;;;;;;55.67;27.65;;;;;;;;;;5116869;27;20055;-84
2022/12/03 03:29:00;;;;;;;51.78;26.67;;;;;;;;;;5116835;27;20475;-84
2022/12/03 03:31:28;;;;;;;57.63;26.52;;;;;;;;;;5135264;27;20043;-83
2022/12/03 03:33:55;;;;;;;57.05;26.88;;;;;;;;;;5135183;27;20057;-84
2022/12/03 03:36:22;;;;;;;50.70;27.45;;;;;;;;;;5116934;27;20050;-83
2022/12/03 03:38:50;;;;;;;53.80;26.45;;;;;;;;;;5134760;27;20081;-83
2022/12/03 03:41:18;;;;;;;51.97;26.65;;;;;;;;;;5116456;27;20061;-84
2022/12/03 03:43:46;;;;;;;55.13;27.90;;;;;;;;;;5116565;27;20422;-83
2022/12/03 03:46:14;;;;;;;48.72;24.58;;;;;;;;;;5116459;27;20070;-83
2022/12/03 03:48:42;;;;;;;51.00;27.02;;;;;;;;;;5134807;27;20557;-84
2022/12/03 03:51:10;;;;;;;49.60;25.70;;;;;;;;;;5116543;27;20047;-84
2022/12/03 03:53:39;;;;;;;49.80;26.27;;;;;;;;;;5116360;27;20046;-84
2022/12/03 03:56:07;;;;;;;50.65;27.75;;;;;;;;;;5116711;27;20066;-84
2022/12/03 03:58:35;;;;;;;47.83;25.17;;;;;;;;;;5116675;27;20414;-84
2022/12/03 04:01:02;;;;;;;47.60;24.52;;;;;;;;;;5116342;27;20407;-84
2022/12/03 04:03:29;;;;;;;51.83;27.00;;;;;;;;;;5116313;27;20047;-84
2022/12/03 04:05:56;;;;;;;52.25;26.92;;;;;;;;;;5116220;27;20047;-84
2022/12/03 04:08:23;;;;;;;54.15;26.27;;;;;;;;;;5134586;27;20053;-84
2022/12/03 04:13:36;;;;;;;48.83;25.00;;;;;;;;;;5134915;27;20044;-84
2022/12/03 04:16:03;;;;;;;55.38;27.48;;;;;;;;;;5127403;27;20050;-84
2022/12/03 04:18:43;;;;;;;54.45;27.98;;;;;;;;;;5114918;27;20051;-84
2022/12/03 04:23:56;;;;;;;52.45;26.08;;;;;;;;;;5134211;27;20415;-84
2022/12/03 04:29:10;;;;;;;51.35;26.45;;;;;;;;;;5134041;27;20479;-84
2022/12/03 04:37:09;;;;;;;52.13;26.58;;;;;;;;;;5134063;27;20047;-84
2022/12/03 04:39:36;;;;;;;59.47;27.65;;;;;;;;;;5115888;27;20475;-85
2022/12/03 04:42:04;;;;;;;51.65;26.40;;;;;;;;;;5115740;28;20406;-84
2022/12/03 04:44:32;;;;;;;51.38;26.83;;;;;;;;;;5116009;27;20475;-85
2022/12/03 04:46:59;;;;;;;50.97;26.10;;;;;;;;;;5133924;27;20059;-84
2022/12/03 04:49:26;;;;;;;54.90;27.40;;;;;;;;;;5115915;28;20051;-84
2022/12/03 04:51:54;;;;;;;54.00;27.50;;;;;;;;;;5115687;28;20138;-84
2022/12/03 04:54:21;;;;;;;53.50;26.85;;;;;;;;;;5115730;28;20043;-85
2022/12/03 04:56:48;;;;;;;57.92;28.13;;;;;;;;;;5133854;28;20057;-84
2022/12/03 04:59:15;;;;;;;58.33;27.52;;;;;;;;;;5115673;28;20054;-84
2022/12/03 05:01:43;;;;;;;56.75;26.70;;;;;;;;;;5115436;28;20051;-84
2022/12/03 05:04:10;;;;;;;54.85;27.55;;;;;;;;;;5115496;28;20051;-85
2022/12/03 05:06:38;;;;;;;58.63;28.38;;;;;;;;;;5133605;28;20054;-85
2022/12/03 05:09:05;;;;;;;55.95;28.15;;;;;;;;;;5133800;28;20505;-84
2022/12/03 05:11:32;;;;;;;64.18;27.23;;;;;;;;;;5115441;28;20510;-84
2022/12/03 05:13:59;;;;;;;60.20;28.20;;;;;;;;;;5115382;28;20039;-84
2022/12/03 05:16:27;;;;;;;59.13;27.98;;;;;;;;;;5133845;28;20043;-85
2022/12/03 05:18:54;;;;;;;59.08;27.67;;;;;;;;;;5115180;28;20505;-84
2022/12/03 05:21:21;;;;;;;64.55;28.88;;;;;;;;;;5115051;28;20051;-84
2022/12/03 05:23:48;;;;;;;59.03;28.60;;;;;;;;;;5115361;28;20505;-84
2022/12/03 05:26:16;;;;;;;60.40;29.27;;;;;;;;;;5115651;28;20104;-83
2022/12/03 05:28:43;;;;;;;60.75;29.90;;;;;;;;;;5123372;28;20050;-85
2022/12/03 05:31:10;;;;;;;59.17;28.90;;;;;;;;;;5118728;28;20050;-84
2022/12/03 05:33:37;;;;;;;62.08;28.23;;;;;;;;;;5115060;28;20047;-84
2022/12/03 05:36:10;;;;;;;59.53;29.38;;;;;;;;;;5133364;28;20083;-85
2022/12/03 05:38:37;;;;;;;56.20;27.90;;;;;;;;;;5133462;28;20411;-84
2022/12/03 05:43:51;;;;;;;57.47;28.58;;;;;;;;;;5133668;27;20051;-85
2022/12/03 05:46:18;;;;;;;57.88;27.45;;;;;;;;;;5118613;27;20054;-84
2022/12/03 05:48:45;;;;;;;63.70;30.23;;;;;;;;;;5118882;27;20047;-84
2022/12/03 05:51:15;;;;;;;64.10;29.95;;;;;;;;;;5119469;27;20050;-84
2022/12/03 05:53:42;;;;;;;62.55;28.75;;;;;;;;;;5118739;27;20046;-84
2022/12/03 05:56:09;;;;;;;64.60;29.35;;;;;;;;;;5136910;27;20055;-84
2022/12/03 05:58:36;;;;;;;64.32;31.15;;;;;;;;;;5118625;27;20047;-84
2022/12/03 06:01:03;;;;;;;64.70;31.23;;;;;;;;;;5118528;27;20051;-85
2022/12/03 06:03:31;;;;;;;62.47;29.73;;;;;;;;;;5119338;27;20058;-84
2022/12/03 06:05:59;;;;;;;60.28;28.95;;;;;;;;;;5119577;27;20047;-84
2022/12/03 06:08:26;;;;;;;61.22;29.98;;;;;;;;;;5118304;27;20077;-84
2022/12/03 06:10:53;;;;;;;61.78;30.27;;;;;;;;;;5118217;27;20055;-84
2022/12/03 06:13:20;;;;;;;66.95;30.27;;;;;;;;;;5118239;27;20043;-84
2022/12/03 06:15:47;;;;;;;65.35;31.08;;;;;;;;;;5118707;27;20039;-84
2022/12/03 06:18:15;;;;;;;62.75;32.17;;;;;;;;;;5118521;27;20049;-84
2022/12/03 06:20:42;;;;;;;64.70;30.67;;;;;;;;;;5118219;27;20122;-84
2022/12/03 06:23:09;;;;;;;61.83;30.38;;;;;;;;;;5118054;27;20388;-84
2022/12/03 06:25:36;;;;;;;66.43;31.08;;;;;;;;;;5136538;27;20047;-84
2022/12/03 06:28:04;;;;;;;66.20;31.90;;;;;;;;;;5118142;27;20047;-84
2022/12/03 06:30:33;;;;;;;65.65;31.08;;;;;;;;;;5118294;27;20043;-83
2022/12/03 06:33:00;;;;;;;62.35;29.52;;;;;;;;;;5117472;27;20102;-84
2022/12/03 06:35:27;;;;;;;65.78;30.55;;;;;;;;;;5136216;27;20039;-84
2022/12/03 06:37:54;;;;;;;66.47;31.75;;;;;;;;;;5117903;27;20055;-84
2022/12/03 06:40:23;;;;;;;71.72;31.42;;;;;;;;;;5118671;27;20607;-84
2022/12/03 06:42:50;;;;;;;69.90;31.65;;;;;;;;;;5136920;27;20046;-85
2022/12/03 06:45:18;;;;;;;70.63;34.13;;;;;;;;;;5118261;27;20043;-85
2022/12/03 06:47:45;;;;;;;74.53;37.42;;;;;;;;;;5117594;27;20059;-84
2022/12/03 06:50:12;;;;;;;68.00;32.70;;;;;;;;;;5117813;27;20051;-85
2022/12/03 06:52:40;;;;;;;71.85;31.70;;;;;;;;;;5117434;27;20055;-84
2022/12/03 06:55:07;;;;;;;71.03;31.75;;;;;;;;;;5117399;27;20050;-84
2022/12/03 06:57:34;;;;;;;67.13;30.25;;;;;;;;;;5117045;27;20050;-84
2022/12/03 07:00:02;;;;;;;63.60;30.35;;;;;;;;;;5117806;27;20142;-84
2022/12/03 07:02:29;;;;;;;68.18;30.67;;;;;;;;;;5117561;27;20186;-84
2022/12/03 07:04:56;;;;;;;66.82;31.48;;;;;;;;;;5135698;27;20075;-84
2022/12/03 07:07:24;;;;;;;78.97;33.38;;;;;;;;;;5117377;27;20100;-84
2022/12/03 07:09:51;;;;;;;70.90;30.67;;;;;;;;;;5135606;27;20043;-83
2022/12/03 07:12:18;;;;;;;63.40;30.58;;;;;;;;;;5117573;27;20533;-84
2022/12/03 07:14:46;;;;;;;68.43;31.58;;;;;;;;;;5135457;27;20046;-84
2022/12/03 07:17:13;;;;;;;69.53;30.83;;;;;;;;;;5117270;27;20051;-85
2022/12/03 07:19:40;;;;;;;71.57;30.88;;;;;;;;;;5117085;27;20483;-84
2022/12/03 07:22:07;;;;;;;70.55;32.67;;;;;;;;;;5117072;27;20047;-84
2022/12/03 07:24:34;;;;;;;64.63;29.38;;;;;;;;;;5117341;27;20055;-84
2022/12/03 07:27:02;;;;;;;68.32;32.50;;;;;;;;;;5117292;27;20051;-84
2022/12/03 07:29:29;;;;;;;68.53;31.63;;;;;;;;;;5111320;28;20059;-84
2022/12/03 07:31:56;;;;;;;72.20;32.92;;;;;;;;;;5079014;28;20616;-84
2022/12/03 07:34:23;;;;;;;72.50;30.90;;;;;;;;;;5084292;28;20404;-84
2022/12/03 07:36:51;;;;;;;68.72;32.50;;;;;;;;;;5076185;28;20062;-84
2022/12/03 07:39:18;;;;;;;72.90;32.35;;;;;;;;;;5076561;28;20048;-85
2022/12/03 07:41:45;;;;;;;71.68;32.83;;;;;;;;;;5077156;28;20043;-84
2022/12/03 07:44:13;;;;;;;70.70;31.30;;;;;;;;;;5076287;28;20055;-84
2022/12/03 07:46:41;;;;;;;65.97;30.38;;;;;;;;;;5093460;28;20051;-84
2022/12/03 07:49:08;;;;;;;71.13;31.02;;;;;;;;;;5076254;28;20515;-84
2022/12/03 07:51:35;;;;;;;67.85;30.30;;;;;;;;;;5076504;28;20515;-84
2022/12/03 07:54:02;;;;;;;70.65;34.33;;;;;;;;;;5077440;28;20044;-84
2022/12/03 07:56:30;;;;;;;72.05;32.80;;;;;;;;;;5091420;28;20067;-83
2022/12/03 07:58:57;;;;;;;104.40;50.42;;;;;;;;;;5077643;28;20534;-84
2022/12/03 08:01:24;;;;;;;70.53;31.70;;;;;;;;;;5074815;28;20508;-84
2022/12/03 08:03:51;;;;;;;69.10;32.28;;;;;;;;;;5093640;28;20404;-84
2022/12/03 08:06:18;;;;;;;73.53;32.55;;;;;;;;;;5075663;28;20052;-84
2022/12/03 08:08:45;;;;;;;71.30;33.63;;;;;;;;;;5075241;28;20446;-84
2022/12/03 08:11:13;;;;;;;79.03;36.45;;;;;;;;;;5075666;28;20507;-83
2022/12/03 08:13:41;;;;;;;84.05;34.47;;;;;;;;;;5075102;28;20040;-84
2022/12/03 08:16:14;;;;;;;71.88;32.90;;;;;;;;;;5075278;28;20059;-84
2022/12/03 08:18:42;;;;;;;71.47;33.50;;;;;;;;;;5075746;28;20052;-84
2022/12/03 08:21:10;;;;;;;71.55;31.52;;;;;;;;;;5075652;28;20083;-85
2022/12/03 08:23:38;;;;;;;68.25;33.28;;;;;;;;;;5074891;28;20496;-85
2022/12/03 08:26:25;;;;;;;70.95;31.83;;;;;;;;;;5093284;28;20097;-85
2022/12/03 08:28:53;;;;;;;79.57;32.40;;;;;;;;;;5075124;28;20040;-85
2022/12/03 08:31:22;;;;;;;67.28;33.30;;;;;;;;;;5075323;28;20079;-85
2022/12/03 08:34:06;;;;;;;79.22;38.15;;;;;;;;;;5076469;28;20040;-85
2022/12/03 08:36:35;;;;;;;71.05;33.75;;;;;;;;;;5075376;28;20221;-84
2022/12/03 08:39:22;;;;;;;66.93;32.92;;;;;;;;;;5075093;28;20044;-84
2022/12/03 08:44:40;;;;;;;69.72;31.30;;;;;;;;;;5093142;28;20048;-86
2022/12/03 08:47:16;;;;;;;64.88;30.95;;;;;;;;;;5092987;28;20062;-83
2022/12/03 08:49:46;;;;;;;64.25;29.52;;;;;;;;;;5075453;28;20543;-85
2022/12/03 08:52:20;;;;;;;69.70;32.05;;;;;;;;;;5075412;28;20079;-85
2022/12/03 08:54:54;;;;;;;68.20;33.03;;;;;;;;;;5075597;28;20050;-86
2022/12/03 08:57:30;;;;;;;68.60;30.63;;;;;;;;;;5074678;28;20159;-85
2022/12/03 09:00:03;;;;;;;68.45;32.03;;;;;;;;;;5074860;28;20500;-85
2022/12/03 09:02:30;;;;;;;;;;;;;;;;;;5075529;28;20082;-85
2022/12/03 09:04:58;;;;;;;61.63;28.50;;;;;;;;;;5075385;28;19925;-85
2022/12/03 09:07:25;;;;;;;59.92;29.48;;;;;;;;;;5075726;28;20044;-85
2022/12/03 09:09:53;;;;;;;61.90;30.23;;;;;;;;;;5094274;28;20052;-85
2022/12/03 09:12:20;;;;;;;61.35;29.52;;;;;;;;;;5075554;28;20412;-85
2022/12/03 09:14:48;;;;;;;58.90;28.73;;;;;;;;;;5074913;28;20143;-85
2022/12/03 09:17:15;;;;;;;60.13;28.70;;;;;;;;;;5074686;28;20052;-84
2022/12/03 09:19:44;;;;;;;60.72;28.38;;;;;;;;;;5094189;28;20503;-85
2022/12/03 09:22:14;;;;;;;55.25;28.35;;;;;;;;;;5097035;28;20428;-83
2022/12/03 09:24:41;;;;;;;62.80;29.67;;;;;;;;;;5096661;28;20044;-84
2022/12/03 09:27:08;;;;;;;57.75;27.58;;;;;;;;;;5078420;28;20052;-85
2022/12/03 09:29:35;;;;;;;55.97;28.63;;;;;;;;;;5078736;28;20522;-85
2022/12/03 09:32:03;;;;;;;59.83;28.35;;;;;;;;;;5079317;28;20048;-85
2022/12/03 09:34:30;;;;;;;59.47;27.85;;;;;;;;;;5078840;28;20097;-86
2022/12/03 09:36:58;;;;;;;57.95;28.35;;;;;;;;;;5078814;28;20423;-84
2022/12/03 09:39:28;;;;;;;57.25;28.17;;;;;;;;;;5096730;28;20059;-85
2022/12/03 09:41:55;;;;;;;63.60;28.98;;;;;;;;;;5096528;28;20048;-84
2022/12/03 09:44:22;;;;;;;59.80;28.33;;;;;;;;;;5078494;28;20048;-84
2022/12/03 09:46:49;;;;;;;64.97;28.77;;;;;;;;;;5077747;28;20056;-85
2022/12/03 09:49:18;;;;;;;60.42;29.10;;;;;;;;;;5096323;28;20437;-84
2022/12/03 09:51:46;;;;;;;66.95;31.73;;;;;;;;;;5078140;28;20048;-85
2022/12/03 09:54:20;;;;;;;58.00;28.20;;;;;;;;;;5078281;28;20409;-84
2022/12/03 09:56:47;;;;;;;59.88;29.85;;;;;;;;;;5096446;28;20070;-85
2022/12/03 09:59:15;;;;;;;65.13;31.98;;;;;;;;;;5077946;28;20056;-82
2022/12/03 10:01:42;;;;;;;64.70;30.75;;;;;;;;;;5078056;28;20044;-83
2022/12/03 10:04:10;;;;;;;62.88;30.33;;;;;;;;;;5077780;28;20131;-84
2022/12/03 10:06:38;;;;;;;65.75;29.80;;;;;;;;;;5077849;28;20130;-85
2022/12/03 10:09:13;;;;;;;65.13;30.25;;;;;;;;;;5079124;28;20052;-82
2022/12/03 10:11:40;;;;;;;62.25;29.90;;;;;;;;;;5078055;28;20488;-85
2022/12/03 10:14:10;;;;;;;59.30;28.45;;;;;;;;;;5077849;28;20050;-85
2022/12/03 10:16:39;;;;;;;67.00;31.13;;;;;;;;;;5096043;28;20400;-82
2022/12/03 10:19:06;;;;;;;70.18;31.48;;;;;;;;;;5077167;28;20044;-83
2022/12/03 10:21:37;;;;;;;75.55;36.92;;;;;;;;;;5094660;28;20048;-83
2022/12/03 10:24:17;;;;;;;91.72;39.78;;;;;;;;;;5077052;28;20385;-82
2022/12/03 10:26:45;;;;;;;143.50;55.22;;;;;;;;;;5077598;28;20131;-82
2022/12/03 10:29:17;;;;;;;96.57;39.10;;;;;;;;;;5095422;28;20055;-84
2022/12/03 10:31:45;;;;;;;73.07;32.65;;;;;;;;;;5077357;28;20056;-84
2022/12/03 10:34:12;;;;;;;67.20;31.70;;;;;;;;;;5095531;28;20109;-84
2022/12/03 10:36:40;;;;;;;74.97;33.97;;;;;;;;;;5077672;28;20054;-85
2022/12/03 10:39:15;;;;;;;69.00;32.28;;;;;;;;;;5096022;28;20048;-84
2022/12/03 10:41:43;;;;;;;69.88;33.00;;;;;;;;;;5077365;28;20048;-84
2022/12/03 10:44:21;;;;;;;67.47;32.47;;;;;;;;;;5077841;28;20070;-84
2022/12/03 10:47:05;;;;;;;67.68;31.70;;;;;;;;;;5077191;28;20054;-84
2022/12/03 10:49:33;;;;;;;69.78;30.95;;;;;;;;;;5077645;28;20130;-83
2022/12/03 10:52:01;;;;;;;69.50;32.45;;;;;;;;;;5076888;28;20048;-84
2022/12/03 10:54:29;;;;;;;66.05;30.58;;;;;;;;;;5095314;28;20051;-83
2022/12/03 10:56:57;;;;;;;66.90;29.95;;;;;;;;;;5077156;28;20054;-84
2022/12/03 10:59:26;;;;;;;63.08;31.00;;;;;;;;;;5077615;28;20052;-85
2022/12/03 11:01:53;;;;;;;73.90;31.75;;;;;;;;;;5095096;28;20488;-85
2022/12/03 11:04:22;;;;;;;68.07;31.38;;;;;;;;;;5076946;28;20458;-84
2022/12/03 11:06:49;;;;;;;75.35;32.38;;;;;;;;;;5094714;28;20062;-84
2022/12/03 11:09:26;;;;;;;75.85;33.05;;;;;;;;;;5076900;28;20058;-85
2022/12/03 11:11:54;;;;;;;81.30;41.92;;;;;;;;;;5094860;28;20048;-84
2022/12/03 11:15:03;;;;;;;73.15;33.83;;;;;;;;;;5094193;28;20492;-85
2022/12/03 11:17:39;;;;;;;77.88;32.28;;;;;;;;;;5012426;28;20090;-84
2022/12/03 11:20:27;;;;;;;69.13;31.33;;;;;;;;;;5088286;28;20058;-84
2022/12/03 11:22:55;;;;;;;71.95;33.90;;;;;;;;;;5036972;28;20198;-85
2022/12/03 11:25:25;;;;;;;74.85;33.92;;;;;;;;;;5076560;28;20439;-85
2022/12/03 11:28:13;;;;;;;74.00;31.70;;;;;;;;;;5076300;28;20051;-84
2022/12/03 11:31:01;;;;;;;72.20;32.90;;;;;;;;;;5094246;28;20492;-83
2022/12/03 11:33:30;;;;;;;71.05;33.33;;;;;;;;;;5094332;28;20056;-83
2022/12/03 11:36:04;;;;;;;79.80;34.13;;;;;;;;;;5076177;28;20069;-84
2022/12/03 11:38:39;;;;;;;85.75;38.92;;;;;;;;;;5094579;28;20040;-84
2022/12/03 11:41:07;;;;;;;75.13;33.78;;;;;;;;;;5075976;28;20601;-84
2022/12/03 11:43:56;;;;;;;69.18;30.80;;;;;;;;;;5075958;28;20048;-83
2022/12/03 11:46:35;;;;;;;92.20;48.95;;;;;;;;;;5075715;28;20143;-84
2022/12/03 11:49:15;;;;;;;82.72;34.35;;;;;;;;;;5076207;28;20113;-83
2022/12/03 11:51:43;;;;;;;80.80;35.58;;;;;;;;;;5075526;28;20519;-82
2022/12/03 11:54:15;;;;;;;80.18;34.72;;;;;;;;;;5093534;28;20048;-82
2022/12/03 11:56:47;;;;;;;75.00;32.42;;;;;;;;;;5075691;28;20048;-82
2022/12/03 11:59:15;;;;;;;73.45;34.15;;;;;;;;;;5093338;28;20048;-83
2022/12/03 12:01:42;;;;;;;69.18;32.17;;;;;;;;;;5093027;28;20531;-83
2022/12/03 12:04:30;;;;;;;70.38;32.42;;;;;;;;;;5093163;28;20051;-84
2022/12/03 12:06:57;;;;;;;80.47;37.08;;;;;;;;;;5076384;28;20052;-83
2022/12/03 12:09:43;;;;;;;75.53;35.42;;;;;;;;;;5077983;28;20055;-84
2022/12/03 12:12:17;;;;;;;65.57;30.67;;;;;;;;;;5093930;28;20048;-84
2022/12/03 12:14:45;;;;;;;68.72;30.75;;;;;;;;;;5093274;28;20044;-84
2022/12/03 12:17:28;;;;;;;67.10;31.38;;;;;;;;;;5075452;28;20503;-85
2022/12/03 12:20:31;;;;;;;75.75;40.97;;;;;;;;;;5093231;28;20075;-84
2022/12/03 12:23:18;;;;;;;71.88;31.15;;;;;;;;;;5010254;28;20057;-84
2022/12/03 12:25:46;;;;;;;66.65;30.60;;;;;;;;;;5087769;28;20051;-85
2022/12/03 12:28:20;;;;;;;67.72;31.48;;;;;;;;;;5090149;27;20043;-84
2022/12/03 12:30:47;;;;;;;69.43;31.67;;;;;;;;;;5133851;27;20047;-84
2022/12/03 12:33:22;;;;;;;70.63;31.73;;;;;;;;;;5115859;27;20074;-84
2022/12/03 12:35:50;;;;;;;66.60;31.75;;;;;;;;;;5133936;27;20495;-84
2022/12/03 12:38:19;;;;;;;76.25;34.90;;;;;;;;;;5134357;27;20069;-84
2022/12/03 12:40:48;;;;;;;79.10;33.97;;;;;;;;;;5116316;27;20055;-83
2022/12/03 12:43:22;;;;;;;75.78;33.97;;;;;;;;;;5133880;27;20086;-84
2022/12/03 12:45:53;;;;;;;82.55;34.35;;;;;;;;;;5115771;27;20074;-83
2022/12/03 12:48:27;;;;;;;75.50;34.47;;;;;;;;;;5133102;27;20406;-83
2022/12/03 12:50:59;;;;;;;76.78;33.13;;;;;;;;;;5117511;28;20053;-84
2022/12/03 12:53:28;;;;;;;72.93;32.45;;;;;;;;;;5133725;27;20505;-85
2022/12/03 12:55:57;;;;;;;74.55;32.40;;;;;;;;;;5096811;28;20046;-84
2022/12/03 12:58:24;;;;;;;66.72;30.52;;;;;;;;;;5085579;28;20063;-84
2022/12/03 13:00:56;;;;;;;69.25;31.25;;;;;;;;;;5102384;28;20514;-84
2022/12/03 13:03:26;;;;;;;70.28;32.63;;;;;;;;;;5092378;28;20384;-83
2022/12/03 13:05:55;;;;;;;66.55;30.80;;;;;;;;;;5113071;28;20047;-83
2022/12/03 13:08:25;;;;;;;70.15;31.33;;;;;;;;;;5113643;28;20067;-84
2022/12/03 13:10:53;;;;;;;68.20;29.50;;;;;;;;;;5095108;28;20454;-84
2022/12/03 13:13:21;;;;;;;68.85;30.65;;;;;;;;;;5095217;28;20464;-84
2022/12/03 13:15:59;;;;;;;66.32;30.73;;;;;;;;;;5113057;28;20043;-85
2022/12/03 13:18:27;;;;;;;71.03;31.85;;;;;;;;;;5095179;28;20052;-83
2022/12/03 13:20:54;;;;;;;65.72;29.30;;;;;;;;;;5094980;28;20044;-83
2022/12/03 13:23:26;;;;;;;63.70;30.15;;;;;;;;;;5112898;28;20492;-84
2022/12/03 13:25:54;;;;;;;69.85;30.38;;;;;;;;;;5112526;28;20066;-85
2022/12/03 13:28:40;;;;;;;70.32;31.55;;;;;;;;;;5097566;28;20051;-84
2022/12/03 13:31:24;;;;;;;66.40;30.80;;;;;;;;;;5094804;28;20052;-85
2022/12/03 13:33:52;;;;;;;66.32;30.02;;;;;;;;;;5112561;28;20527;-84
2022/12/03 13:36:20;;;;;;;66.25;31.02;;;;;;;;;;5093958;28;20059;-84
2022/12/03 13:38:48;;;;;;;85.68;38.05;;;;;;;;;;5094692;28;20043;-84
2022/12/03 13:44:13;;;;;;;77.28;34.50;;;;;;;;;;5112104;28;20487;-84
2022/12/03 13:46:40;;;;;;;67.82;30.63;;;;;;;;;;5094188;28;20074;-85
2022/12/03 13:49:15;;;;;;;83.00;36.58;;;;;;;;;;5094890;28;20047;-85
2022/12/03 13:51:43;;;;;;;88.45;42.58;;;;;;;;;;5094607;28;20139;-83
2022/12/03 13:54:13;;;;;;;82.43;40.25;;;;;;;;;;5094608;28;20418;-82
2022/12/03 13:56:42;;;;;;;81.18;36.08;;;;;;;;;;5113190;28;20074;-83
2022/12/03 13:59:09;;;;;;;82.32;34.58;;;;;;;;;;5094602;28;20054;-85
2022/12/03 14:01:36;;;;;;;338.30;148.80;;;;;;;;;;5113266;28;20058;-85
2022/12/03 14:04:04;;;;;;;102.47;48.80;;;;;;;;;;5094787;28;20043;-84
2022/12/03 14:06:32;;;;;;;98.85;49.50;;;;;;;;;;5116175;28;20051;-84
2022/12/03 14:09:00;;;;;;;83.50;34.95;;;;;;;;;;5116800;28;20479;-85
2022/12/03 14:14:13;;;;;;;77.28;33.95;;;;;;;;;;5116352;28;20070;-84
2022/12/03 14:16:41;;;;;;;75.45;31.98;;;;;;;;;;5098387;28;20047;-85
2022/12/03 14:19:08;;;;;;;75.97;32.53;;;;;;;;;;5098190;28;20455;-84
2022/12/03 14:21:35;;;;;;;77.82;33.70;;;;;;;;;;5116174;28;20055;-85
2022/12/03 14:24:02;;;;;;;83.60;35.10;;;;;;;;;;5115965;28;20055;-85
2022/12/03 14:26:30;;;;;;;79.22;32.90;;;;;;;;;;5097880;28;20047;-85
2022/12/03 14:28:57;;;;;;;88.00;35.88;;;;;;;;;;5116128;28;20058;-85
2022/12/03 14:31:24;;;;;;;85.30;35.58;;;;;;;;;;5097860;28;20046;-84
2022/12/03 14:33:51;;;;;;;82.05;33.72;;;;;;;;;;5097510;28;20483;-84
2022/12/03 14:36:19;;;;;;;85.93;34.80;;;;;;;;;;5097528;28;20412;-84
2022/12/03 14:38:46;;;;;;;86.32;36.10;;;;;;;;;;5097650;28;20411;-84
2022/12/03 14:43:59;;;;;;;81.15;34.47;;;;;;;;;;5115747;28;20047;-84
2022/12/03 14:46:26;;;;;;;81.18;35.40;;;;;;;;;;5097337;28;20457;-84
2022/12/03 14:48:53;;;;;;;78.90;33.65;;;;;;;;;;5114405;28;20043;-84
2022/12/03 14:51:20;;;;;;;83.28;33.85;;;;;;;;;;5096431;28;20047;-85
2022/12/03 14:53:48;;;;;;;86.15;33.45;;;;;;;;;;5096812;28;20056;-84
2022/12/03 14:56:15;;;;;;;86.30;33.58;;;;;;;;;;5114581;28;20079;-84
2022/12/03 14:58:42;;;;;;;95.05;41.03;;;;;;;;;;5096726;28;20063;-84
2022/12/03 15:01:09;;;;;;;85.10;34.92;;;;;;;;;;5114821;28;20052;-84